sensor_id;sensor_type;location;lat;lon;timestamp;P1;durP1;ratioP1;P2;durP2;ratioP2
37459;SDS011;23318;50.966;5.284;2022-09-09T00:00:19;3.17;;;1.10;;
37459;SDS011;23318;50.966;5.284;2022-09-09T00:05:36;4.45;;;1.52;;
37459;SDS011;23318;50.966;5.284;2022-09-09T00:08:11;3.67;;;1.38;;
37459;SDS011;23318;50.966;5.284;2022-09-09T00:10:44;2.97;;;0.80;;
37459;SDS011;23318;50.966;5.284;2022-09-09T00:13:25;4.72;;;1.10;;
37459;SDS011;23318;50.966;5.284;2022-09-09T00:21:11;4.93;;;1.30;;
37459;SDS011;23318;50.966;5.284;2022-09-09T00:23:47;4.22;;;1.05;;
37459;SDS011;23318;50.966;5.284;2022-09-09T00:31:33;3.30;;;1.08;;
37459;SDS011;23318;50.966;5.284;2022-09-09T00:34:03;5.90;;;1.20;;
37459;SDS011;23318;50.966;5.284;2022-09-09T00:36:42;7.32;;;1.83;;
37459;SDS011;23318;50.966;5.284;2022-09-09T00:39:30;6.25;;;1.42;;
37459;SDS011;23318;50.966;5.284;2022-09-09T00:44:51;3.33;;;0.90;;
37459;SDS011;23318;50.966;5.284;2022-09-09T00:47:43;2.03;;;1.00;;
37459;SDS011;23318;50.966;5.284;2022-09-09T00:50:35;5.90;;;1.15;;
37459;SDS011;23318;50.966;5.284;2022-09-09T00:56:18;3.83;;;1.30;;
37459;SDS011;23318;50.966;5.284;2022-09-09T01:01:41;8.65;;;1.42;;
37459;SDS011;23318;50.966;5.284;2022-09-09T01:04:15;3.72;;;1.75;;
37459;SDS011;23318;50.966;5.284;2022-09-09T01:06:48;2.60;;;1.52;;
37459;SDS011;23318;50.966;5.284;2022-09-09T01:09:29;5.82;;;1.85;;
37459;SDS011;23318;50.966;5.284;2022-09-09T01:14:43;7.70;;;1.52;;
37459;SDS011;23318;50.966;5.284;2022-09-09T01:17:33;5.65;;;1.73;;
37459;SDS011;23318;50.966;5.284;2022-09-09T01:28:08;7.13;;;1.90;;
37459;SDS011;23318;50.966;5.284;2022-09-09T01:30:53;4.70;;;1.50;;
37459;SDS011;23318;50.966;5.284;2022-09-09T01:33:20;5.80;;;1.45;;
37459;SDS011;23318;50.966;5.284;2022-09-09T01:35:57;3.42;;;1.33;;
37459;SDS011;23318;50.966;5.284;2022-09-09T01:38:31;7.47;;;2.05;;
37459;SDS011;23318;50.966;5.284;2022-09-09T01:40:59;5.18;;;1.58;;
37459;SDS011;23318;50.966;5.284;2022-09-09T01:43:25;6.45;;;1.60;;
37459;SDS011;23318;50.966;5.284;2022-09-09T01:45:53;4.47;;;1.52;;
37459;SDS011;23318;50.966;5.284;2022-09-09T01:48:24;3.78;;;1.80;;
37459;SDS011;23318;50.966;5.284;2022-09-09T01:50:50;9.90;;;1.83;;
37459;SDS011;23318;50.966;5.284;2022-09-09T01:53:17;7.20;;;2.40;;
37459;SDS011;23318;50.966;5.284;2022-09-09T01:55:56;6.85;;;2.22;;
37459;SDS011;23318;50.966;5.284;2022-09-09T02:06:50;5.97;;;1.98;;
37459;SDS011;23318;50.966;5.284;2022-09-09T02:09:20;11.45;;;2.10;;
37459;SDS011;23318;50.966;5.284;2022-09-09T02:11:49;6.07;;;1.88;;
37459;SDS011;23318;50.966;5.284;2022-09-09T02:14:25;8.07;;;2.13;;
37459;SDS011;23318;50.966;5.284;2022-09-09T02:17:03;4.78;;;1.80;;
37459;SDS011;23318;50.966;5.284;2022-09-09T02:19:39;8.48;;;2.45;;
37459;SDS011;23318;50.966;5.284;2022-09-09T02:22:11;7.45;;;2.10;;
37459;SDS011;23318;50.966;5.284;2022-09-09T02:24:38;8.65;;;2.50;;
37459;SDS011;23318;50.966;5.284;2022-09-09T02:27:06;8.50;;;2.17;;
37459;SDS011;23318;50.966;5.284;2022-09-09T02:29:38;9.10;;;2.85;;
37459;SDS011;23318;50.966;5.284;2022-09-09T02:32:14;5.57;;;2.10;;
37459;SDS011;23318;50.966;5.284;2022-09-09T02:34:47;7.72;;;2.00;;
37459;SDS011;23318;50.966;5.284;2022-09-09T02:37:40;5.03;;;2.28;;
37459;SDS011;23318;50.966;5.284;2022-09-09T02:40:09;9.93;;;2.25;;
37459;SDS011;23318;50.966;5.284;2022-09-09T02:42:43;9.82;;;2.70;;
37459;SDS011;23318;50.966;5.284;2022-09-09T02:45:14;10.02;;;2.72;;
37459;SDS011;23318;50.966;5.284;2022-09-09T02:50:34;13.43;;;2.75;;
37459;SDS011;23318;50.966;5.284;2022-09-09T02:53:16;8.35;;;2.58;;
37459;SDS011;23318;50.966;5.284;2022-09-09T02:55:54;11.75;;;2.75;;
37459;SDS011;23318;50.966;5.284;2022-09-09T02:58:39;7.47;;;2.10;;
37459;SDS011;23318;50.966;5.284;2022-09-09T03:01:05;7.45;;;2.13;;
37459;SDS011;23318;50.966;5.284;2022-09-09T03:03:31;9.90;;;2.83;;
37459;SDS011;23318;50.966;5.284;2022-09-09T03:05:57;6.97;;;2.45;;
37459;SDS011;23318;50.966;5.284;2022-09-09T03:08:23;12.45;;;2.88;;
37459;SDS011;23318;50.966;5.284;2022-09-09T03:10:48;8.57;;;1.83;;
37459;SDS011;23318;50.966;5.284;2022-09-09T03:13:14;8.85;;;2.28;;
37459;SDS011;23318;50.966;5.284;2022-09-09T03:15:40;12.07;;;2.28;;
37459;SDS011;23318;50.966;5.284;2022-09-09T03:18:06;10.82;;;2.80;;
37459;SDS011;23318;50.966;5.284;2022-09-09T03:20:32;9.63;;;2.53;;
37459;SDS011;23318;50.966;5.284;2022-09-09T03:22:59;8.90;;;2.03;;
37459;SDS011;23318;50.966;5.284;2022-09-09T03:25:25;6.20;;;1.67;;
37459;SDS011;23318;50.966;5.284;2022-09-09T03:27:51;8.57;;;2.33;;
37459;SDS011;23318;50.966;5.284;2022-09-09T03:30:20;5.85;;;1.80;;
37459;SDS011;23318;50.966;5.284;2022-09-09T03:32:49;10.07;;;2.42;;
37459;SDS011;23318;50.966;5.284;2022-09-09T03:35:15;10.45;;;2.17;;
37459;SDS011;23318;50.966;5.284;2022-09-09T03:37:41;7.60;;;1.73;;
37459;SDS011;23318;50.966;5.284;2022-09-09T03:40:07;9.05;;;2.05;;
37459;SDS011;23318;50.966;5.284;2022-09-09T03:42:34;11.50;;;2.28;;
37459;SDS011;23318;50.966;5.284;2022-09-09T03:45:02;8.75;;;2.25;;
37459;SDS011;23318;50.966;5.284;2022-09-09T03:47:28;8.23;;;2.03;;
37459;SDS011;23318;50.966;5.284;2022-09-09T03:49:54;10.88;;;1.90;;
37459;SDS011;23318;50.966;5.284;2022-09-09T03:52:20;13.38;;;2.58;;
37459;SDS011;23318;50.966;5.284;2022-09-09T03:54:49;8.07;;;1.63;;
37459;SDS011;23318;50.966;5.284;2022-09-09T03:57:16;9.00;;;2.20;;
37459;SDS011;23318;50.966;5.284;2022-09-09T03:59:42;12.38;;;2.15;;
37459;SDS011;23318;50.966;5.284;2022-09-09T04:02:08;15.68;;;2.17;;
37459;SDS011;23318;50.966;5.284;2022-09-09T04:04:34;10.25;;;2.22;;
37459;SDS011;23318;50.966;5.284;2022-09-09T04:07:00;9.27;;;2.00;;
37459;SDS011;23318;50.966;5.284;2022-09-09T04:09:26;9.52;;;2.10;;
37459;SDS011;23318;50.966;5.284;2022-09-09T04:11:51;9.30;;;2.00;;
37459;SDS011;23318;50.966;5.284;2022-09-09T04:14:18;7.85;;;1.92;;
37459;SDS011;23318;50.966;5.284;2022-09-09T04:16:44;9.35;;;1.70;;
37459;SDS011;23318;50.966;5.284;2022-09-09T04:19:10;8.82;;;1.83;;
37459;SDS011;23318;50.966;5.284;2022-09-09T04:21:39;9.63;;;1.83;;
37459;SDS011;23318;50.966;5.284;2022-09-09T04:24:06;10.18;;;2.08;;
37459;SDS011;23318;50.966;5.284;2022-09-09T04:26:33;6.85;;;1.67;;
37459;SDS011;23318;50.966;5.284;2022-09-09T04:28:59;7.90;;;1.80;;
37459;SDS011;23318;50.966;5.284;2022-09-09T04:31:25;9.20;;;2.22;;
37459;SDS011;23318;50.966;5.284;2022-09-09T04:33:51;9.30;;;1.70;;
37459;SDS011;23318;50.966;5.284;2022-09-09T04:36:17;9.25;;;2.38;;
37459;SDS011;23318;50.966;5.284;2022-09-09T04:38:44;9.98;;;1.83;;
37459;SDS011;23318;50.966;5.284;2022-09-09T04:41:10;8.05;;;2.28;;
37459;SDS011;23318;50.966;5.284;2022-09-09T04:43:37;8.30;;;1.95;;
37459;SDS011;23318;50.966;5.284;2022-09-09T04:46:03;14.40;;;2.25;;
37459;SDS011;23318;50.966;5.284;2022-09-09T04:48:29;11.65;;;1.95;;
37459;SDS011;23318;50.966;5.284;2022-09-09T04:51:04;11.60;;;2.58;;
37459;SDS011;23318;50.966;5.284;2022-09-09T04:53:31;7.55;;;1.70;;
37459;SDS011;23318;50.966;5.284;2022-09-09T04:56:02;13.38;;;2.42;;
37459;SDS011;23318;50.966;5.284;2022-09-09T04:58:30;11.48;;;2.50;;
37459;SDS011;23318;50.966;5.284;2022-09-09T05:01:03;11.98;;;1.90;;
37459;SDS011;23318;50.966;5.284;2022-09-09T05:03:30;9.52;;;2.60;;
37459;SDS011;23318;50.966;5.284;2022-09-09T05:06:06;10.98;;;2.33;;
37459;SDS011;23318;50.966;5.284;2022-09-09T05:08:34;10.57;;;2.50;;
37459;SDS011;23318;50.966;5.284;2022-09-09T05:11:12;8.00;;;2.38;;
37459;SDS011;23318;50.966;5.284;2022-09-09T05:13:41;8.77;;;2.25;;
37459;SDS011;23318;50.966;5.284;2022-09-09T05:16:07;11.00;;;2.20;;
37459;SDS011;23318;50.966;5.284;2022-09-09T05:18:36;9.27;;;2.53;;
37459;SDS011;23318;50.966;5.284;2022-09-09T05:21:02;14.73;;;2.35;;
37459;SDS011;23318;50.966;5.284;2022-09-09T05:23:28;15.35;;;2.58;;
37459;SDS011;23318;50.966;5.284;2022-09-09T05:25:55;7.68;;;2.10;;
37459;SDS011;23318;50.966;5.284;2022-09-09T05:28:21;15.65;;;3.53;;
37459;SDS011;23318;50.966;5.284;2022-09-09T05:30:59;13.07;;;2.45;;
37459;SDS011;23318;50.966;5.284;2022-09-09T05:33:28;13.32;;;2.22;;
37459;SDS011;23318;50.966;5.284;2022-09-09T12:46:41;10.25;;;1.73;;
37459;SDS011;23318;50.966;5.284;2022-09-09T12:52:13;5.95;;;1.73;;
37459;SDS011;23318;50.966;5.284;2022-09-09T12:54:55;4.90;;;1.50;;
37459;SDS011;23318;50.966;5.284;2022-09-09T12:57:22;7.35;;;1.52;;
37459;SDS011;23318;50.966;5.284;2022-09-09T12:59:50;6.80;;;1.60;;
37459;SDS011;23318;50.966;5.284;2022-09-09T13:04:47;7.85;;;1.77;;
37459;SDS011;23318;50.966;5.284;2022-09-09T13:07:15;2.55;;;0.90;;
37459;SDS011;23318;50.966;5.284;2022-09-09T13:09:42;8.07;;;1.75;;
37459;SDS011;23318;50.966;5.284;2022-09-09T13:12:16;5.70;;;1.30;;
37459;SDS011;23318;50.966;5.284;2022-09-09T13:14:51;6.65;;;1.35;;
37459;SDS011;23318;50.966;5.284;2022-09-09T13:17:20;3.35;;;1.08;;
37459;SDS011;23318;50.966;5.284;2022-09-09T13:19:47;5.35;;;1.42;;
37459;SDS011;23318;50.966;5.284;2022-09-09T13:25:04;6.05;;;1.55;;
37459;SDS011;23318;50.966;5.284;2022-09-09T13:30:21;6.68;;;1.40;;
37459;SDS011;23318;50.966;5.284;2022-09-09T13:33:03;5.32;;;1.40;;
37459;SDS011;23318;50.966;5.284;2022-09-09T13:35:31;7.32;;;1.60;;
37459;SDS011;23318;50.966;5.284;2022-09-09T13:37:58;4.60;;;1.15;;
37459;SDS011;23318;50.966;5.284;2022-09-09T13:40:32;6.90;;;1.50;;
37459;SDS011;23318;50.966;5.284;2022-09-09T13:42:57;3.17;;;1.13;;
37459;SDS011;23318;50.966;5.284;2022-09-09T13:45:24;4.50;;;1.40;;
37459;SDS011;23318;50.966;5.284;2022-09-09T13:47:54;3.70;;;1.05;;
37459;SDS011;23318;50.966;5.284;2022-09-09T13:52:58;5.47;;;1.10;;
37459;SDS011;23318;50.966;5.284;2022-09-09T13:55:28;3.17;;;1.02;;
37459;SDS011;23318;50.966;5.284;2022-09-09T13:57:55;3.90;;;1.05;;
37459;SDS011;23318;50.966;5.284;2022-09-09T14:00:23;4.18;;;1.25;;
37459;SDS011;23318;50.966;5.284;2022-09-09T14:02:49;3.60;;;1.10;;
37459;SDS011;23318;50.966;5.284;2022-09-09T14:05:16;5.75;;;1.10;;
37459;SDS011;23318;50.966;5.284;2022-09-09T14:07:43;5.20;;;1.10;;
37459;SDS011;23318;50.966;5.284;2022-09-09T14:10:09;5.35;;;1.40;;
37459;SDS011;23318;50.966;5.284;2022-09-09T14:12:36;4.68;;;1.17;;
37459;SDS011;23318;50.966;5.284;2022-09-09T14:15:03;9.18;;;1.30;;
37459;SDS011;23318;50.966;5.284;2022-09-09T14:17:30;5.90;;;1.63;;
37459;SDS011;23318;50.966;5.284;2022-09-09T14:19:56;6.00;;;1.15;;
37459;SDS011;23318;50.966;5.284;2022-09-09T14:22:22;4.95;;;1.30;;
37459;SDS011;23318;50.966;5.284;2022-09-09T14:24:48;7.00;;;1.35;;
37459;SDS011;23318;50.966;5.284;2022-09-09T14:27:15;3.47;;;1.10;;
37459;SDS011;23318;50.966;5.284;2022-09-09T14:29:41;5.82;;;1.17;;
37459;SDS011;23318;50.966;5.284;2022-09-09T14:32:08;3.45;;;0.80;;
37459;SDS011;23318;50.966;5.284;2022-09-09T14:34:34;2.90;;;1.00;;
37459;SDS011;23318;50.966;5.284;2022-09-09T14:37:00;2.55;;;1.25;;
37459;SDS011;23318;50.966;5.284;2022-09-09T14:39:26;4.88;;;0.80;;
37459;SDS011;23318;50.966;5.284;2022-09-09T14:41:51;2.83;;;0.68;;
37459;SDS011;23318;50.966;5.284;2022-09-09T14:44:17;3.08;;;0.80;;
37459;SDS011;23318;50.966;5.284;2022-09-09T14:46:43;3.17;;;0.98;;
37459;SDS011;23318;50.966;5.284;2022-09-09T14:49:09;1.98;;;0.73;;
37459;SDS011;23318;50.966;5.284;2022-09-09T14:51:38;2.63;;;1.00;;
37459;SDS011;23318;50.966;5.284;2022-09-09T14:54:04;3.92;;;1.08;;
37459;SDS011;23318;50.966;5.284;2022-09-09T14:56:31;1.50;;;0.70;;
37459;SDS011;23318;50.966;5.284;2022-09-09T14:59:01;3.45;;;0.80;;
37459;SDS011;23318;50.966;5.284;2022-09-09T15:01:27;5.18;;;0.85;;
37459;SDS011;23318;50.966;5.284;2022-09-09T15:03:55;5.13;;;1.10;;
37459;SDS011;23318;50.966;5.284;2022-09-09T15:06:26;5.18;;;0.90;;
37459;SDS011;23318;50.966;5.284;2022-09-09T15:08:54;2.97;;;1.15;;
37459;SDS011;23318;50.966;5.284;2022-09-09T15:11:22;4.05;;;1.13;;
37459;SDS011;23318;50.966;5.284;2022-09-09T15:13:50;3.60;;;0.80;;
37459;SDS011;23318;50.966;5.284;2022-09-09T15:16:20;4.38;;;1.20;;
37459;SDS011;23318;50.966;5.284;2022-09-09T15:18:51;3.65;;;1.17;;
37459;SDS011;23318;50.966;5.284;2022-09-09T15:21:19;2.85;;;0.68;;
37459;SDS011;23318;50.966;5.284;2022-09-09T15:23:47;4.57;;;1.33;;
37459;SDS011;23318;50.966;5.284;2022-09-09T15:26:14;6.18;;;1.30;;
37459;SDS011;23318;50.966;5.284;2022-09-09T15:28:40;4.93;;;1.02;;
37459;SDS011;23318;50.966;5.284;2022-09-09T15:31:12;2.80;;;0.98;;
37459;SDS011;23318;50.966;5.284;2022-09-09T15:33:40;3.85;;;1.10;;
37459;SDS011;23318;50.966;5.284;2022-09-09T15:36:16;2.30;;;0.70;;
37459;SDS011;23318;50.966;5.284;2022-09-09T15:38:42;3.00;;;0.70;;
37459;SDS011;23318;50.966;5.284;2022-09-09T15:41:08;6.22;;;1.20;;
37459;SDS011;23318;50.966;5.284;2022-09-09T15:43:35;5.88;;;1.38;;
37459;SDS011;23318;50.966;5.284;2022-09-09T15:48:43;3.20;;;0.80;;
37459;SDS011;23318;50.966;5.284;2022-09-09T15:51:10;3.60;;;1.25;;
37459;SDS011;23318;50.966;5.284;2022-09-09T15:53:36;2.67;;;0.75;;
37459;SDS011;23318;50.966;5.284;2022-09-09T15:56:04;3.33;;;0.80;;
37459;SDS011;23318;50.966;5.284;2022-09-09T15:58:33;3.92;;;0.98;;
37459;SDS011;23318;50.966;5.284;2022-09-09T16:01:04;4.22;;;0.80;;
37459;SDS011;23318;50.966;5.284;2022-09-09T16:03:35;6.03;;;1.52;;
37459;SDS011;23318;50.966;5.284;2022-09-09T16:06:07;4.15;;;1.17;;
37459;SDS011;23318;50.966;5.284;2022-09-09T16:08:44;4.35;;;0.73;;
37459;SDS011;23318;50.966;5.284;2022-09-09T16:11:15;4.28;;;0.90;;
37459;SDS011;23318;50.966;5.284;2022-09-09T16:13:46;4.72;;;1.30;;
37459;SDS011;23318;50.966;5.284;2022-09-09T16:16:17;2.97;;;0.93;;
37459;SDS011;23318;50.966;5.284;2022-09-09T16:18:45;4.28;;;0.77;;
37459;SDS011;23318;50.966;5.284;2022-09-09T16:21:13;3.40;;;0.93;;
37459;SDS011;23318;50.966;5.284;2022-09-09T16:23:44;6.05;;;1.30;;
37459;SDS011;23318;50.966;5.284;2022-09-09T16:26:11;5.05;;;1.10;;
37459;SDS011;23318;50.966;5.284;2022-09-09T16:28:38;2.30;;;1.05;;
37459;SDS011;23318;50.966;5.284;2022-09-09T16:31:08;2.63;;;1.20;;
37459;SDS011;23318;50.966;5.284;2022-09-09T16:33:35;6.88;;;1.50;;
37459;SDS011;23318;50.966;5.284;2022-09-09T16:36:05;8.02;;;1.20;;
37459;SDS011;23318;50.966;5.284;2022-09-09T16:38:31;4.82;;;1.02;;
37459;SDS011;23318;50.966;5.284;2022-09-09T16:40:58;3.67;;;1.10;;
37459;SDS011;23318;50.966;5.284;2022-09-09T16:43:25;4.18;;;1.10;;
37459;SDS011;23318;50.966;5.284;2022-09-09T16:45:50;5.10;;;1.10;;
37459;SDS011;23318;50.966;5.284;2022-09-09T16:48:16;4.22;;;1.00;;
37459;SDS011;23318;50.966;5.284;2022-09-09T16:50:42;3.10;;;0.93;;
37459;SDS011;23318;50.966;5.284;2022-09-09T16:53:07;4.05;;;1.27;;
37459;SDS011;23318;50.966;5.284;2022-09-09T16:55:40;2.33;;;0.80;;
37459;SDS011;23318;50.966;5.284;2022-09-09T16:58:07;3.15;;;0.85;;
37459;SDS011;23318;50.966;5.284;2022-09-09T17:00:36;3.38;;;0.98;;
37459;SDS011;23318;50.966;5.284;2022-09-09T17:03:02;3.10;;;1.02;;
37459;SDS011;23318;50.966;5.284;2022-09-09T17:05:28;5.90;;;1.17;;
37459;SDS011;23318;50.966;5.284;2022-09-09T17:07:54;3.38;;;1.10;;
37459;SDS011;23318;50.966;5.284;2022-09-09T17:10:22;2.85;;;1.13;;
37459;SDS011;23318;50.966;5.284;2022-09-09T17:12:49;4.43;;;1.10;;
37459;SDS011;23318;50.966;5.284;2022-09-09T17:15:15;3.50;;;0.98;;
37459;SDS011;23318;50.966;5.284;2022-09-09T17:17:41;2.95;;;1.08;;
37459;SDS011;23318;50.966;5.284;2022-09-09T17:20:09;3.78;;;0.95;;
37459;SDS011;23318;50.966;5.284;2022-09-09T17:22:35;5.45;;;1.25;;
37459;SDS011;23318;50.966;5.284;2022-09-09T17:25:00;3.33;;;1.08;;
37459;SDS011;23318;50.966;5.284;2022-09-09T17:27:26;3.45;;;1.00;;
37459;SDS011;23318;50.966;5.284;2022-09-09T17:29:51;4.13;;;1.02;;
37459;SDS011;23318;50.966;5.284;2022-09-09T17:32:17;5.20;;;1.10;;
37459;SDS011;23318;50.966;5.284;2022-09-09T17:34:43;3.72;;;1.00;;
37459;SDS011;23318;50.966;5.284;2022-09-09T17:37:09;3.42;;;0.88;;
37459;SDS011;23318;50.966;5.284;2022-09-09T17:39:35;3.88;;;1.00;;
37459;SDS011;23318;50.966;5.284;2022-09-09T17:42:01;5.22;;;1.00;;
37459;SDS011;23318;50.966;5.284;2022-09-09T17:44:27;3.30;;;0.90;;
37459;SDS011;23318;50.966;5.284;2022-09-09T17:46:53;5.18;;;1.10;;
37459;SDS011;23318;50.966;5.284;2022-09-09T17:49:20;7.57;;;1.02;;
37459;SDS011;23318;50.966;5.284;2022-09-09T17:51:46;6.97;;;1.45;;
37459;SDS011;23318;50.966;5.284;2022-09-09T17:54:21;6.70;;;1.48;;
37459;SDS011;23318;50.966;5.284;2022-09-09T17:56:47;4.40;;;1.00;;
37459;SDS011;23318;50.966;5.284;2022-09-09T17:59:14;10.10;;;1.55;;
37459;SDS011;23318;50.966;5.284;2022-09-09T18:01:42;4.95;;;1.33;;
37459;SDS011;23318;50.966;5.284;2022-09-09T18:04:14;2.42;;;0.88;;
37459;SDS011;23318;50.966;5.284;2022-09-09T18:06:42;6.13;;;1.45;;
37459;SDS011;23318;50.966;5.284;2022-09-09T18:09:10;6.10;;;1.23;;
37459;SDS011;23318;50.966;5.284;2022-09-09T18:11:47;7.28;;;1.67;;
37459;SDS011;23318;50.966;5.284;2022-09-09T18:14:16;6.28;;;1.27;;
37459;SDS011;23318;50.966;5.284;2022-09-09T18:16:44;5.22;;;1.30;;
37459;SDS011;23318;50.966;5.284;2022-09-09T18:19:11;4.93;;;1.45;;
37459;SDS011;23318;50.966;5.284;2022-09-09T18:21:40;4.57;;;1.25;;
37459;SDS011;23318;50.966;5.284;2022-09-09T18:24:08;6.10;;;1.30;;
37459;SDS011;23318;50.966;5.284;2022-09-09T18:26:35;6.93;;;1.60;;
37459;SDS011;23318;50.966;5.284;2022-09-09T18:29:05;6.20;;;1.50;;
37459;SDS011;23318;50.966;5.284;2022-09-09T18:31:32;5.50;;;1.30;;
37459;SDS011;23318;50.966;5.284;2022-09-09T18:33:59;5.40;;;1.60;;
37459;SDS011;23318;50.966;5.284;2022-09-09T18:36:28;4.25;;;1.10;;
37459;SDS011;23318;50.966;5.284;2022-09-09T18:38:59;7.57;;;1.85;;
37459;SDS011;23318;50.966;5.284;2022-09-09T18:41:28;6.30;;;1.50;;
37459;SDS011;23318;50.966;5.284;2022-09-09T18:44:00;5.05;;;1.60;;
37459;SDS011;23318;50.966;5.284;2022-09-09T18:46:27;5.55;;;1.13;;
37459;SDS011;23318;50.966;5.284;2022-09-09T18:48:55;4.70;;;1.15;;
37459;SDS011;23318;50.966;5.284;2022-09-09T18:51:22;3.80;;;1.20;;
37459;SDS011;23318;50.966;5.284;2022-09-09T18:53:50;5.40;;;1.33;;
37459;SDS011;23318;50.966;5.284;2022-09-09T18:56:18;2.72;;;1.17;;
37459;SDS011;23318;50.966;5.284;2022-09-09T18:58:44;5.00;;;1.30;;
37459;SDS011;23318;50.966;5.284;2022-09-09T19:01:12;6.25;;;1.42;;
37459;SDS011;23318;50.966;5.284;2022-09-09T19:03:39;6.90;;;1.23;;
37459;SDS011;23318;50.966;5.284;2022-09-09T19:06:13;5.20;;;1.40;;
37459;SDS011;23318;50.966;5.284;2022-09-09T19:08:40;9.05;;;1.67;;
37459;SDS011;23318;50.966;5.284;2022-09-09T19:11:08;4.03;;;1.35;;
37459;SDS011;23318;50.966;5.284;2022-09-09T19:13:35;7.15;;;1.38;;
37459;SDS011;23318;50.966;5.284;2022-09-09T19:16:05;7.00;;;1.50;;
37459;SDS011;23318;50.966;5.284;2022-09-09T19:18:32;9.90;;;1.65;;
37459;SDS011;23318;50.966;5.284;2022-09-09T19:21:10;4.97;;;1.30;;
37459;SDS011;23318;50.966;5.284;2022-09-09T19:23:38;4.78;;;1.33;;
37459;SDS011;23318;50.966;5.284;2022-09-09T19:26:06;14.07;;;1.70;;
37459;SDS011;23318;50.966;5.284;2022-09-09T19:28:32;9.55;;;1.40;;
37459;SDS011;23318;50.966;5.284;2022-09-09T19:31:06;5.15;;;1.40;;
37459;SDS011;23318;50.966;5.284;2022-09-09T19:33:33;5.13;;;1.25;;
37459;SDS011;23318;50.966;5.284;2022-09-09T19:36:00;8.38;;;1.90;;
37459;SDS011;23318;50.966;5.284;2022-09-09T19:38:29;5.80;;;1.63;;
37459;SDS011;23318;50.966;5.284;2022-09-09T19:41:01;10.48;;;2.22;;
37459;SDS011;23318;50.966;5.284;2022-09-09T19:43:28;7.80;;;1.67;;
37459;SDS011;23318;50.966;5.284;2022-09-09T19:45:57;11.35;;;2.55;;
37459;SDS011;23318;50.966;5.284;2022-09-09T19:48:26;8.00;;;1.63;;
37459;SDS011;23318;50.966;5.284;2022-09-09T19:50:55;6.43;;;1.58;;
37459;SDS011;23318;50.966;5.284;2022-09-09T19:53:25;8.13;;;1.92;;
37459;SDS011;23318;50.966;5.284;2022-09-09T19:55:51;6.70;;;1.88;;
37459;SDS011;23318;50.966;5.284;2022-09-09T19:58:17;10.15;;;2.03;;
37459;SDS011;23318;50.966;5.284;2022-09-09T20:00:43;7.53;;;1.75;;
37459;SDS011;23318;50.966;5.284;2022-09-09T20:03:09;9.45;;;1.95;;
37459;SDS011;23318;50.966;5.284;2022-09-09T20:05:35;5.15;;;1.25;;
37459;SDS011;23318;50.966;5.284;2022-09-09T20:08:01;13.43;;;2.00;;
37459;SDS011;23318;50.966;5.284;2022-09-09T20:10:27;7.10;;;1.40;;
37459;SDS011;23318;50.966;5.284;2022-09-09T20:12:53;9.30;;;1.95;;
37459;SDS011;23318;50.966;5.284;2022-09-09T20:15:19;9.88;;;2.15;;
37459;SDS011;23318;50.966;5.284;2022-09-09T20:17:44;7.97;;;1.77;;
37459;SDS011;23318;50.966;5.284;2022-09-09T20:20:10;7.13;;;1.42;;
37459;SDS011;23318;50.966;5.284;2022-09-09T20:22:36;6.30;;;1.80;;
37459;SDS011;23318;50.966;5.284;2022-09-09T20:25:02;5.15;;;1.85;;
37459;SDS011;23318;50.966;5.284;2022-09-09T20:27:28;6.45;;;1.90;;
37459;SDS011;23318;50.966;5.284;2022-09-09T20:29:55;10.32;;;2.08;;
37459;SDS011;23318;50.966;5.284;2022-09-09T20:32:20;7.85;;;2.22;;
37459;SDS011;23318;50.966;5.284;2022-09-09T20:34:46;9.73;;;2.10;;
37459;SDS011;23318;50.966;5.284;2022-09-09T20:37:11;7.25;;;2.45;;
37459;SDS011;23318;50.966;5.284;2022-09-09T20:39:37;8.35;;;1.98;;
37459;SDS011;23318;50.966;5.284;2022-09-09T20:42:04;5.55;;;1.90;;
37459;SDS011;23318;50.966;5.284;2022-09-09T20:44:29;4.88;;;1.20;;
37459;SDS011;23318;50.966;5.284;2022-09-09T20:46:55;6.25;;;1.63;;
37459;SDS011;23318;50.966;5.284;2022-09-09T20:49:26;11.05;;;1.70;;
37459;SDS011;23318;50.966;5.284;2022-09-09T20:51:53;3.65;;;1.52;;
37459;SDS011;23318;50.966;5.284;2022-09-09T20:54:20;4.75;;;1.15;;
37459;SDS011;23318;50.966;5.284;2022-09-09T20:56:47;6.13;;;1.35;;
37459;SDS011;23318;50.966;5.284;2022-09-09T20:59:24;2.40;;;0.75;;
37459;SDS011;23318;50.966;5.284;2022-09-09T21:01:51;4.75;;;0.82;;
37459;SDS011;23318;50.966;5.284;2022-09-09T21:04:18;3.95;;;0.98;;
37459;SDS011;23318;50.966;5.284;2022-09-09T21:06:45;3.63;;;1.40;;
37459;SDS011;23318;50.966;5.284;2022-09-09T21:09:13;1.42;;;0.82;;
37459;SDS011;23318;50.966;5.284;2022-09-09T21:11:38;4.35;;;0.80;;
37459;SDS011;23318;50.966;5.284;2022-09-09T21:14:04;2.42;;;0.75;;
37459;SDS011;23318;50.966;5.284;2022-09-09T21:16:30;4.30;;;0.90;;
37459;SDS011;23318;50.966;5.284;2022-09-09T21:18:56;3.78;;;0.85;;
37459;SDS011;23318;50.966;5.284;2022-09-09T21:21:23;3.88;;;0.80;;
37459;SDS011;23318;50.966;5.284;2022-09-09T21:23:52;3.00;;;0.98;;
37459;SDS011;23318;50.966;5.284;2022-09-09T21:26:20;4.93;;;1.10;;
37459;SDS011;23318;50.966;5.284;2022-09-09T21:28:46;5.55;;;0.68;;
37459;SDS011;23318;50.966;5.284;2022-09-09T21:31:16;3.80;;;1.08;;
37459;SDS011;23318;50.966;5.284;2022-09-09T21:33:42;4.95;;;1.02;;
37459;SDS011;23318;50.966;5.284;2022-09-09T21:36:10;2.42;;;0.52;;
37459;SDS011;23318;50.966;5.284;2022-09-09T21:38:37;6.38;;;0.90;;
37459;SDS011;23318;50.966;5.284;2022-09-09T21:41:08;3.47;;;0.75;;
37459;SDS011;23318;50.966;5.284;2022-09-09T21:43:36;4.47;;;0.75;;
37459;SDS011;23318;50.966;5.284;2022-09-09T21:46:06;3.40;;;1.00;;
37459;SDS011;23318;50.966;5.284;2022-09-09T21:51:06;4.70;;;1.00;;
37459;SDS011;23318;50.966;5.284;2022-09-09T21:53:33;5.22;;;1.33;;
37459;SDS011;23318;50.966;5.284;2022-09-09T21:56:00;5.40;;;1.17;;
37459;SDS011;23318;50.966;5.284;2022-09-09T21:58:27;5.78;;;1.27;;
37459;SDS011;23318;50.966;5.284;2022-09-09T22:00:52;5.38;;;1.10;;
37459;SDS011;23318;50.966;5.284;2022-09-09T22:03:18;6.60;;;1.38;;
37459;SDS011;23318;50.966;5.284;2022-09-09T22:05:44;3.72;;;1.17;;
37459;SDS011;23318;50.966;5.284;2022-09-09T22:08:11;3.80;;;1.02;;
37459;SDS011;23318;50.966;5.284;2022-09-09T22:10:39;6.55;;;1.23;;
37459;SDS011;23318;50.966;5.284;2022-09-09T22:13:09;4.80;;;1.10;;
37459;SDS011;23318;50.966;5.284;2022-09-09T22:15:37;6.40;;;1.50;;
37459;SDS011;23318;50.966;5.284;2022-09-09T22:18:05;3.58;;;1.02;;
37459;SDS011;23318;50.966;5.284;2022-09-09T22:20:31;9.23;;;1.52;;
37459;SDS011;23318;50.966;5.284;2022-09-09T22:23:01;9.90;;;1.25;;
37459;SDS011;23318;50.966;5.284;2022-09-09T22:25:31;4.40;;;1.35;;
37459;SDS011;23318;50.966;5.284;2022-09-09T22:27:57;8.05;;;1.73;;
37459;SDS011;23318;50.966;5.284;2022-09-09T22:30:22;3.20;;;0.98;;
37459;SDS011;23318;50.966;5.284;2022-09-09T22:32:49;6.32;;;1.13;;
37459;SDS011;23318;50.966;5.284;2022-09-09T22:35:15;9.93;;;1.52;;
37459;SDS011;23318;50.966;5.284;2022-09-09T22:37:41;3.83;;;1.70;;
37459;SDS011;23318;50.966;5.284;2022-09-09T22:40:07;9.90;;;1.67;;
37459;SDS011;23318;50.966;5.284;2022-09-09T22:42:34;10.90;;;1.48;;
37459;SDS011;23318;50.966;5.284;2022-09-09T22:44:59;6.57;;;1.77;;
37459;SDS011;23318;50.966;5.284;2022-09-09T22:47:25;5.25;;;1.65;;
37459;SDS011;23318;50.966;5.284;2022-09-09T22:49:51;5.45;;;2.05;;
37459;SDS011;23318;50.966;5.284;2022-09-09T22:52:16;4.38;;;1.58;;
37459;SDS011;23318;50.966;5.284;2022-09-09T22:54:43;8.52;;;1.75;;
37459;SDS011;23318;50.966;5.284;2022-09-09T22:57:10;7.47;;;1.52;;
37459;SDS011;23318;50.966;5.284;2022-09-09T22:59:35;8.63;;;1.75;;
37459;SDS011;23318;50.966;5.284;2022-09-09T23:02:01;7.45;;;1.80;;
37459;SDS011;23318;50.966;5.284;2022-09-09T23:04:27;13.43;;;2.30;;
37459;SDS011;23318;50.966;5.284;2022-09-09T23:06:52;10.77;;;2.40;;